Time;durP1;ratioP1;P1;durP2;ratioP2;P2;SDS_P1;SDS_P2;PMS_P1;PMS_P2;Temp;Humidity;BMP_temperature;BMP_pressure;BME280_temperature;BME280_humidity;BME280_pressure;Samples;Min_cycle;Max_cycle;Signal;HPM_P1;HPM_P2
2022/03/30 00:00:56;;;;;;;29.83;15.25;;;9.10;99.90;;;;;;5052494;28;20032;-74
2022/03/30 00:03:22;;;;;;;29.77;14.43;;;9.20;99.90;;;;;;5052969;28;20095;-75
2022/03/30 00:05:48;;;;;;;35.75;15.95;;;9.30;99.90;;;;;;5051907;28;20079;-74
2022/03/30 00:08:14;;;;;;;27.25;15.10;;;9.50;99.90;;;;;;5051611;28;20471;-74
2022/03/30 00:10:39;;;;;;;32.60;15.68;;;9.60;99.90;;;;;;5051871;28;20033;-75
2022/03/30 00:13:05;;;;;;;35.50;15.68;;;9.60;99.90;;;;;;5047393;28;20029;-74
2022/03/30 00:15:31;;;;;;;26.80;14.95;;;9.70;99.90;;;;;;5032198;28;20036;-74
2022/03/30 00:17:57;;;;;;;32.08;14.75;;;9.80;99.90;;;;;;5036579;28;20108;-74
2022/03/30 00:20:23;;;;;;;31.45;15.90;;;9.80;99.90;;;;;;5052343;28;20037;-74
2022/03/30 00:22:49;;;;;;;29.98;15.63;;;9.80;99.90;;;;;;5052056;28;20143;-74
2022/03/30 00:25:15;;;;;;;28.88;15.18;;;9.90;99.90;;;;;;5052567;28;20382;-74
2022/03/30 00:27:43;;;;;;;32.85;15.25;;;9.90;99.90;;;;;;5052031;28;20036;-73
2022/03/30 00:30:11;;;;;;;26.90;14.63;;;9.90;99.90;;;;;;5042356;28;20493;-74
2022/03/30 00:32:37;;;;;;;33.17;16.50;;;10.00;99.80;;;;;;5051554;28;20613;-76
2022/03/30 00:35:04;;;;;;;35.72;16.42;;;10.00;99.70;;;;;;5051020;28;20528;-75
2022/03/30 00:37:30;;;;;;;24.33;13.77;;;10.00;99.60;;;;;;5031814;28;20026;-75
2022/03/30 00:39:56;;;;;;;26.55;14.55;;;10.00;99.50;;;;;;5049542;28;20035;-75
2022/03/30 00:42:23;;;;;;;27.27;14.38;;;10.10;99.50;;;;;;5052652;28;20056;-75
2022/03/30 00:44:50;;;;;;;34.42;15.38;;;10.10;99.40;;;;;;5044945;28;20112;-76
2022/03/30 00:47:27;;;;;;;30.73;14.32;;;10.10;99.40;;;;;;5032102;28;20419;-76
2022/03/30 00:49:54;;;;;;;24.95;14.55;;;10.10;99.40;;;;;;5051633;28;20057;-76
2022/03/30 00:52:20;;;;;;;23.05;13.98;;;10.20;99.30;;;;;;5051950;28;20032;-74
2022/03/30 00:54:48;;;;;;;21.23;13.40;;;10.20;99.10;;;;;;5050967;28;20621;-74
2022/03/30 00:57:17;;;;;;;29.38;14.57;;;10.20;99.00;;;;;;5052082;28;20043;-75
2022/03/30 00:59:43;;;;;;;34.85;15.02;;;10.20;98.90;;;;;;5051686;28;20037;-75
2022/03/30 01:02:09;;;;;;;28.80;15.65;;;10.20;98.80;;;;;;5052491;28;20075;-76
2022/03/30 01:04:35;;;;;;;26.95;13.30;;;10.30;98.70;;;;;;5034226;28;20498;-75
2022/03/30 01:07:01;;;;;;;24.42;14.32;;;10.30;98.70;;;;;;5051645;28;20120;-75
2022/03/30 01:09:27;;;;;;;33.33;16.13;;;10.30;98.70;;;;;;5032311;28;20061;-74
2022/03/30 01:11:54;;;;;;;29.73;15.40;;;10.30;98.90;;;;;;5032781;28;20036;-76
2022/03/30 01:14:21;;;;;;;27.88;13.93;;;10.30;98.80;;;;;;5033496;28;20033;-75
2022/03/30 01:16:47;;;;;;;30.17;14.98;;;10.30;98.60;;;;;;5033467;28;20022;-77
2022/03/30 01:19:14;;;;;;;27.88;15.23;;;10.30;98.70;;;;;;5036730;28;20378;-75
2022/03/30 01:21:41;;;;;;;27.58;15.15;;;10.30;99.10;;;;;;5053342;28;20029;-74
2022/03/30 01:24:09;;;;;;;29.42;14.68;;;10.30;99.40;;;;;;5059405;28;20350;-75
2022/03/30 01:26:35;;;;;;;33.75;15.80;;;10.30;99.60;;;;;;5051985;28;20025;-75
2022/03/30 01:32:24;;;;;;;28.27;14.63;;;10.30;99.60;;;;;;5036432;28;20112;-75
2022/03/30 01:34:37;;;;;;;29.53;15.73;;;10.30;99.70;;;;;;5050681;28;20035;-74
2022/03/30 01:37:04;;;;;;;26.80;13.57;;;10.30;99.70;;;;;;5051483;28;20351;-74
2022/03/30 01:39:30;;;;;;;29.05;15.40;;;10.30;99.90;;;;;;5033060;28;20036;-74
2022/03/30 01:41:55;;;;;;;36.88;17.23;;;10.30;99.90;;;;;;5031492;28;20021;-75
2022/03/30 01:44:21;;;;;;;34.10;16.73;;;10.30;99.90;;;;;;5034301;28;20033;-75
2022/03/30 01:46:47;;;;;;;31.23;15.93;;;10.30;99.70;;;;;;5050713;28;20033;-75
2022/03/30 01:49:12;;;;;;;28.10;15.93;;;10.40;99.60;;;;;;5050781;28;20053;-75
2022/03/30 01:51:38;;;;;;;32.83;16.13;;;10.40;99.70;;;;;;5042959;28;20021;-75
2022/03/30 01:54:04;;;;;;;31.75;15.63;;;10.40;99.70;;;;;;5036493;28;20038;-75
2022/03/30 01:56:30;;;;;;;33.42;16.67;;;10.40;99.50;;;;;;5030952;28;20044;-73
2022/03/30 01:58:55;;;;;;;35.00;17.83;;;10.40;99.90;;;;;;5044466;28;20431;-75
2022/03/30 02:01:21;;;;;;;30.63;14.98;;;10.40;99.70;;;;;;5050987;28;20078;-75
2022/03/30 02:03:47;;;;;;;32.92;15.30;;;10.40;99.90;;;;;;5049924;28;20033;-75
2022/03/30 02:06:14;;;;;;;29.10;15.18;;;10.50;99.40;;;;;;5051260;28;20076;-75
2022/03/30 02:08:39;;;;;;;28.35;16.33;;;10.50;99.30;;;;;;5039331;28;20033;-75
2022/03/30 02:11:05;;;;;;;32.15;16.75;;;10.40;99.20;;;;;;5031474;28;20078;-75
2022/03/30 02:13:31;;;;;;;28.02;15.52;;;10.40;99.10;;;;;;5030245;28;20025;-73
2022/03/30 02:15:56;;;;;;;29.40;15.25;;;10.40;99.20;;;;;;5031732;28;20366;-75
2022/03/30 02:18:23;;;;;;;24.00;14.35;;;10.30;99.20;;;;;;5038033;28;20029;-75
2022/03/30 02:20:48;;;;;;;23.25;13.80;;;10.30;99.40;;;;;;5051189;28;20155;-75
2022/03/30 02:23:14;;;;;;;24.45;14.35;;;10.30;99.60;;;;;;5043673;28;20513;-74
2022/03/30 02:25:40;;;;;;;27.00;14.90;;;10.20;99.70;;;;;;5038878;28;20025;-75
2022/03/30 02:28:05;;;;;;;31.67;17.08;;;10.20;99.80;;;;;;5048961;28;20033;-75
2022/03/30 02:30:31;;;;;;;29.98;15.88;;;10.20;99.90;;;;;;5034215;28;20029;-74
2022/03/30 02:32:58;;;;;;;36.85;16.60;;;10.10;99.90;;;;;;5034928;28;20030;-75
2022/03/30 02:35:23;;;;;;;27.67;15.38;;;10.10;99.90;;;;;;5034770;28;20463;-75
2022/03/30 02:37:49;;;;;;;25.88;15.15;;;10.10;99.90;;;;;;5039204;28;20061;-74
2022/03/30 02:40:15;;;;;;;27.15;15.82;;;10.10;99.90;;;;;;5054632;28;20033;-75
2022/03/30 02:42:41;;;;;;;25.38;15.23;;;10.00;99.90;;;;;;5049133;28;20040;-76
2022/03/30 02:45:07;;;;;;;28.65;15.55;;;10.00;99.90;;;;;;5042240;28;20033;-75
2022/03/30 02:50:17;;;;;;;28.77;15.88;;;10.00;99.90;;;;;;5053915;28;20123;-75
2022/03/30 02:52:42;;;;;;;29.33;15.95;;;10.00;99.90;;;;;;5053636;28;20025;-74
2022/03/30 02:55:08;;;;;;;30.15;15.93;;;10.00;99.90;;;;;;5035100;28;20426;-74
2022/03/30 02:57:34;;;;;;;29.48;15.70;;;9.90;99.90;;;;;;5039111;28;20033;-73
2022/03/30 02:59:59;;;;;;;29.33;16.08;;;9.90;99.90;;;;;;5054018;28;20021;-74
2022/03/30 03:02:26;;;;;;;33.03;16.38;;;9.90;99.90;;;;;;5054325;28;20025;-74
2022/03/30 03:04:51;;;;;;;29.35;15.75;;;9.90;99.90;;;;;;5051915;28;20032;-75
2022/03/30 03:07:17;;;;;;;23.10;14.00;;;9.80;99.90;;;;;;5053634;28;20025;-75
2022/03/30 03:09:43;;;;;;;24.35;14.48;;;9.80;99.90;;;;;;5052963;28;20033;-74
2022/03/30 03:12:09;;;;;;;38.17;16.85;;;9.80;99.90;;;;;;5052767;28;20063;-75
2022/03/30 03:14:34;;;;;;;30.80;16.25;;;9.80;99.90;;;;;;5053177;28;20028;-74
2022/03/30 03:17:00;;;;;;;37.47;16.73;;;9.80;99.90;;;;;;5053496;28;20028;-74
2022/03/30 03:19:28;;;;;;;30.83;15.05;;;9.80;99.90;;;;;;5054039;28;20485;-74
2022/03/30 03:21:54;;;;;;;33.53;16.50;;;9.90;99.90;;;;;;5041561;28;20494;-74
2022/03/30 03:24:19;;;;;;;32.83;16.38;;;9.90;99.90;;;;;;5033745;28;20033;-75
2022/03/30 03:26:45;;;;;;;32.92;16.65;;;10.00;99.90;;;;;;5043085;28;20104;-74
2022/03/30 03:29:11;;;;;;;33.30;16.40;;;10.00;99.90;;;;;;5033876;28;20516;-74
2022/03/30 03:31:36;;;;;;;31.80;15.00;;;10.00;99.90;;;;;;5042657;28;20025;-73
2022/03/30 03:34:02;;;;;;;30.02;16.25;;;10.10;99.90;;;;;;5037801;28;20033;-75
2022/03/30 03:36:27;;;;;;;25.15;14.63;;;10.10;99.90;;;;;;5016356;28;20029;-74
2022/03/30 03:38:53;;;;;;;25.20;13.55;;;10.10;99.90;;;;;;5052672;28;20033;-74
2022/03/30 03:41:19;;;;;;;28.00;14.73;;;10.10;99.90;;;;;;5053508;28;20029;-75
2022/03/30 03:43:45;;;;;;;27.90;15.73;;;10.00;99.90;;;;;;5052511;28;20449;-75
2022/03/30 03:46:10;;;;;;;31.50;16.20;;;10.10;99.90;;;;;;5035463;28;20025;-74
2022/03/30 03:48:36;;;;;;;34.00;17.10;;;10.00;99.90;;;;;;5050437;28;20032;-73
2022/03/30 03:51:02;;;;;;;32.50;15.18;;;10.10;99.90;;;;;;5053200;28;20090;-76
2022/03/30 03:53:27;;;;;;;26.17;15.15;;;10.20;99.90;;;;;;5050994;28;20106;-74
2022/03/30 03:55:53;;;;;;;28.92;15.07;;;10.20;99.90;;;;;;5032383;28;20040;-73
2022/03/30 03:58:19;;;;;;;27.90;14.85;;;10.20;99.90;;;;;;5050974;28;20493;-74
2022/03/30 04:00:45;;;;;;;30.10;16.38;;;10.20;99.90;;;;;;5052150;28;20478;-74
2022/03/30 04:03:10;;;;;;;30.77;15.02;;;10.20;99.90;;;;;;5053194;28;20103;-74
2022/03/30 04:05:36;;;;;;;27.88;14.23;;;10.20;99.90;;;;;;5052258;28;20116;-73
2022/03/30 04:08:01;;;;;;;29.02;15.38;;;10.10;99.90;;;;;;5037222;28;20494;-73
2022/03/30 04:10:27;;;;;;;28.17;15.07;;;10.10;99.90;;;;;;5032952;28;20477;-75
2022/03/30 04:12:53;;;;;;;30.10;15.88;;;10.10;99.90;;;;;;5031011;28;20106;-75
2022/03/30 04:15:18;;;;;;;26.30;15.38;;;10.10;99.90;;;;;;5036984;28;20033;-75
2022/03/30 04:17:46;;;;;;;25.83;14.18;;;10.00;99.90;;;;;;5040374;28;20035;-74
2022/03/30 04:20:13;;;;;;;25.25;14.02;;;10.00;99.90;;;;;;5044110;28;20038;-73
2022/03/30 04:22:39;;;;;;;30.27;14.27;;;10.00;99.90;;;;;;5031828;28;20029;-73
2022/03/30 04:25:05;;;;;;;26.20;14.93;;;10.00;99.90;;;;;;5032624;28;20044;-73
2022/03/30 04:27:31;;;;;;;32.85;15.75;;;9.90;99.90;;;;;;5040396;28;20098;-72
2022/03/30 04:29:57;;;;;;;29.52;16.25;;;9.90;99.90;;;;;;5051843;28;20029;-74
2022/03/30 04:32:23;;;;;;;25.25;15.02;;;9.90;99.90;;;;;;5052836;28;20025;-73
2022/03/30 04:34:48;;;;;;;27.75;15.10;;;9.90;99.90;;;;;;5044048;28;20033;-74
2022/03/30 04:37:14;;;;;;;26.00;15.93;;;9.90;99.90;;;;;;5033650;28;20160;-74
2022/03/30 04:39:40;;;;;;;31.10;16.95;;;9.90;99.90;;;;;;5031335;28;20147;-76
2022/03/30 04:42:06;;;;;;;34.90;15.05;;;9.90;99.90;;;;;;5033555;28;20037;-75
2022/03/30 04:44:32;;;;;;;29.20;15.07;;;9.90;99.90;;;;;;5047756;28;20037;-73
2022/03/30 04:46:57;;;;;;;33.83;14.18;;;9.90;99.90;;;;;;5032129;28;20045;-77
2022/03/30 04:49:23;;;;;;;33.20;13.38;;;9.90;99.90;;;;;;5032359;28;20477;-74
2022/03/30 04:51:49;;;;;;;32.33;13.40;;;9.90;99.90;;;;;;5031382;28;20455;-74
2022/03/30 04:54:16;;;;;;;30.70;13.27;;;9.80;99.90;;;;;;5014464;28;20451;-75
2022/03/30 04:56:42;;;;;;;35.90;13.18;;;9.70;99.90;;;;;;5031357;28;20022;-75
2022/03/30 04:59:08;;;;;;;31.85;12.20;;;9.60;99.90;;;;;;5033487;28;20092;-74
2022/03/30 05:01:33;;;;;;;33.85;13.35;;;9.40;99.90;;;;;;5033916;28;20129;-72
2022/03/30 05:03:59;;;;;;;35.50;13.48;;;9.30;99.90;;;;;;5034448;28;20029;-74
2022/03/30 05:06:25;;;;;;;35.28;12.07;;;9.20;99.90;;;;;;5038038;28;20502;-73
2022/03/30 05:08:50;;;;;;;37.33;13.88;;;9.20;99.90;;;;;;5041920;28;20056;-73
2022/03/30 05:11:16;;;;;;;33.40;12.68;;;9.10;99.90;;;;;;5037834;28;20091;-76
2022/03/30 05:13:41;;;;;;;36.58;12.80;;;9.00;99.90;;;;;;5030598;28;20029;-74
2022/03/30 05:16:07;;;;;;;31.33;13.30;;;8.90;99.90;;;;;;5014234;28;20041;-76
2022/03/30 05:18:33;;;;;;;33.53;13.45;;;8.80;99.90;;;;;;5013841;28;20044;-73
2022/03/30 05:20:58;;;;;;;29.67;13.57;;;8.70;99.90;;;;;;5031165;28;20041;-78
2022/03/30 05:23:24;;;;;;;36.35;14.35;;;8.70;99.90;;;;;;5031819;28;20481;-75
2022/03/30 05:25:50;;;;;;;36.83;15.05;;;8.60;99.90;;;;;;5030777;28;20037;-80
2022/03/30 05:28:15;;;;;;;36.17;13.77;;;8.50;99.90;;;;;;5031740;28;20033;-76
2022/03/30 05:30:41;;;;;;;42.28;15.00;;;8.50;99.90;;;;;;5036552;28;20076;-85
2022/03/30 05:33:07;;;;;;;31.23;14.52;;;8.50;99.90;;;;;;5037234;28;20025;-87
2022/03/30 05:35:33;;;;;;;34.08;15.07;;;8.30;99.90;;;;;;5032863;28;20053;-79
2022/03/30 05:37:59;;;;;;;40.30;16.17;;;8.30;99.90;;;;;;5033135;28;20065;-80
2022/03/30 05:40:24;;;;;;;39.95;16.10;;;8.20;99.90;;;;;;5039001;28;20041;-79
2022/03/30 05:42:50;;;;;;;30.42;14.68;;;8.20;99.90;;;;;;5030803;28;20052;-77
2022/03/30 05:45:16;;;;;;;33.80;15.38;;;8.20;99.90;;;;;;5031469;28;20030;-73
2022/03/30 05:47:43;;;;;;;41.70;15.93;;;8.20;99.90;;;;;;5030608;28;20041;-77
2022/03/30 05:50:09;;;;;;;39.63;16.45;;;8.10;99.90;;;;;;5044731;28;20057;-77
2022/03/30 05:52:35;;;;;;;38.33;16.55;;;8.10;99.90;;;;;;5053584;28;20029;-75
2022/03/30 05:55:01;;;;;;;48.28;17.15;;;8.10;99.90;;;;;;5043332;28;20033;-82
2022/03/30 05:57:27;;;;;;;37.85;16.95;;;8.10;99.90;;;;;;5055126;28;20044;-79
2022/03/30 05:59:52;;;;;;;41.97;16.77;;;8.10;99.90;;;;;;5045237;28;20025;-80
2022/03/30 06:02:18;;;;;;;43.40;17.05;;;8.10;99.90;;;;;;5041770;28;20525;-79
2022/03/30 06:04:50;;;;;;;37.97;16.50;;;8.10;99.90;;;;;;5055228;28;20033;-79
2022/03/30 06:07:16;;;;;;;41.78;17.58;;;8.10;99.90;;;;;;5040322;28;20033;-79
2022/03/30 06:09:42;;;;;;;44.15;18.23;;;8.10;99.90;;;;;;5035094;28;20102;-78
2022/03/30 06:12:08;;;;;;;44.13;17.48;;;8.10;99.90;;;;;;5031066;28;20119;-80
2022/03/30 06:14:34;;;;;;;37.30;17.58;;;8.10;99.90;;;;;;5032059;28;20473;-81
2022/03/30 06:17:03;;;;;;;36.40;17.75;;;8.20;99.90;;;;;;5032773;28;20124;-77
2022/03/30 06:19:30;;;;;;;38.13;16.00;;;8.20;99.90;;;;;;5048514;28;20025;-80
2022/03/30 06:21:56;;;;;;;35.10;15.93;;;8.20;99.90;;;;;;5053194;28;20095;-80
2022/03/30 06:24:22;;;;;;;32.63;16.40;;;8.20;99.90;;;;;;5053192;28;20033;-77
2022/03/30 06:26:47;;;;;;;38.88;16.75;;;8.20;99.90;;;;;;5052078;28;20390;-80
2022/03/30 06:29:13;;;;;;;37.67;17.02;;;8.20;99.90;;;;;;5049733;28;20057;-79
2022/03/30 06:31:40;;;;;;;37.92;15.93;;;8.20;99.90;;;;;;5044848;28;20025;-75
2022/03/30 06:34:06;;;;;;;34.95;15.55;;;8.20;99.90;;;;;;5040622;28;20086;-78
2022/03/30 06:36:33;;;;;;;37.90;16.95;;;8.20;99.90;;;;;;5051875;28;20107;-78
2022/03/30 06:39:00;;;;;;;34.08;15.23;;;8.30;99.90;;;;;;5039324;28;20410;-78
2022/03/30 06:41:26;;;;;;;40.35;17.27;;;8.30;99.90;;;;;;5033642;28;20451;-77
2022/03/30 06:43:51;;;;;;;35.13;16.73;;;8.30;99.90;;;;;;5041001;28;20074;-75
2022/03/30 06:46:18;;;;;;;35.78;15.82;;;8.30;99.90;;;;;;5032994;28;20041;-75
2022/03/30 06:48:45;;;;;;;44.88;16.63;;;8.30;99.90;;;;;;5042101;28;20059;-75
2022/03/30 06:51:12;;;;;;;35.03;15.60;;;8.30;99.90;;;;;;5042753;28;20025;-76
2022/03/30 06:53:37;;;;;;;40.60;16.42;;;8.40;99.90;;;;;;5036921;28;20029;-76
2022/03/30 06:56:03;;;;;;;40.03;17.00;;;8.40;99.90;;;;;;5052341;28;20493;-75
2022/03/30 06:58:29;;;;;;;37.25;16.60;;;8.40;99.90;;;;;;5044406;28;20378;-76
2022/03/30 07:00:56;;;;;;;42.13;18.85;;;8.40;99.90;;;;;;5030860;28;20386;-76
2022/03/30 07:03:26;;;;;;;40.83;19.35;;;8.40;99.90;;;;;;5044434;28;20032;-76
2022/03/30 07:05:51;;;;;;;46.22;20.50;;;8.40;99.90;;;;;;5044348;28;20026;-75
2022/03/30 07:11:01;;;;;;;38.13;18.25;;;8.50;99.90;;;;;;5031828;28;20036;-78
2022/03/30 07:13:27;;;;;;;50.08;19.98;;;8.50;99.90;;;;;;5032770;28;20026;-76
2022/03/30 07:15:52;;;;;;;44.85;17.73;;;8.50;99.90;;;;;;5036900;28;20033;-76
2022/03/30 07:18:19;;;;;;;41.58;18.35;;;8.50;99.90;;;;;;5042142;28;20100;-77
2022/03/30 07:20:45;;;;;;;40.15;19.70;;;8.50;99.90;;;;;;5031662;28;20041;-75
2022/03/30 07:23:11;;;;;;;42.13;19.02;;;8.50;99.90;;;;;;5034426;28;20021;-76
2022/03/30 07:25:37;;;;;;;32.67;17.33;;;8.60;99.90;;;;;;5052866;28;20033;-77
2022/03/30 07:28:04;;;;;;;41.03;18.80;;;8.60;99.90;;;;;;5047468;28;20641;-79
2022/03/30 07:30:30;;;;;;;35.15;17.35;;;8.60;99.90;;;;;;5048722;28;20025;-76
2022/03/30 07:32:57;;;;;;;44.35;18.35;;;8.60;99.90;;;;;;5039298;28;20051;-80
2022/03/30 07:35:27;;;;;;;34.70;16.52;;;8.60;99.90;;;;;;5048132;28;20478;-79
2022/03/30 07:37:54;;;;;;;35.90;17.42;;;8.70;99.90;;;;;;5037624;28;20038;-75
2022/03/30 07:40:24;;;;;;;35.45;18.38;;;8.70;99.90;;;;;;5032508;28;20041;-77
2022/03/30 07:42:50;;;;;;;;;;;8.70;99.90;;;;;;5031907;28;20546;-76
2022/03/30 07:45:17;;;;;;;45.88;18.65;;;8.80;99.90;;;;;;5042662;28;19908;-76
2022/03/30 07:47:43;;;;;;;44.53;18.00;;;8.80;99.90;;;;;;5051626;28;20106;-75
2022/03/30 07:50:10;;;;;;;40.45;17.75;;;8.80;99.90;;;;;;5036304;28;20054;-76
2022/03/30 07:52:36;;;;;;;38.03;18.10;;;8.80;99.90;;;;;;5047066;28;20036;-76
2022/03/30 07:55:03;;;;;;;32.47;16.38;;;8.80;99.90;;;;;;5050974;28;20029;-76
2022/03/30 07:57:29;;;;;;;34.10;18.50;;;8.80;99.90;;;;;;5050504;28;20029;-75
2022/03/30 07:59:59;;;;;;;39.28;19.65;;;8.90;99.90;;;;;;5039002;28;20032;-76
2022/03/30 08:02:25;;;;;;;;;;;8.90;99.90;;;;;;5043492;28;20382;-76
2022/03/30 08:04:51;;;;;;;38.97;19.63;;;8.90;99.90;;;;;;5031714;28;19909;-77
2022/03/30 08:07:18;;;;;;;49.75;20.63;;;9.00;99.90;;;;;;5038971;28;20036;-76
2022/03/30 08:09:45;;;;;;;41.17;20.42;;;9.00;99.90;;;;;;5045885;28;20116;-74
2022/03/30 08:12:12;;;;;;;41.78;19.60;;;9.10;99.90;;;;;;5036644;28;20451;-75
2022/03/30 08:14:38;;;;;;;39.55;17.42;;;9.20;99.90;;;;;;5049404;28;20390;-75
2022/03/30 08:17:05;;;;;;;36.60;18.63;;;9.20;99.90;;;;;;5055076;28;20037;-76
2022/03/30 08:19:31;;;;;;;41.65;20.50;;;9.30;99.90;;;;;;5054899;28;20064;-76
2022/03/30 08:24:41;;;;;;;41.97;19.77;;;9.40;99.90;;;;;;5046653;28;20051;-78
2022/03/30 08:27:07;;;;;;;43.08;20.75;;;9.40;99.90;;;;;;5040248;28;20033;-76
2022/03/30 08:29:33;;;;;;;38.38;18.92;;;9.30;99.90;;;;;;5052342;28;20028;-76
2022/03/30 08:31:58;;;;;;;45.03;20.75;;;9.30;99.90;;;;;;5051528;28;20390;-76
2022/03/30 08:34:25;;;;;;;45.65;20.38;;;9.30;99.90;;;;;;5052184;28;20481;-76
2022/03/30 08:36:51;;;;;;;44.45;19.05;;;9.30;99.90;;;;;;5051892;28;20025;-76
2022/03/30 08:39:18;;;;;;;39.35;16.05;;;9.30;99.90;;;;;;5051419;28;20032;-77
2022/03/30 08:41:45;;;;;;;45.67;18.33;;;9.30;99.90;;;;;;5047032;28;20021;-77
2022/03/30 08:44:14;;;;;;;36.28;16.38;;;9.30;99.90;;;;;;5035581;28;20030;-76
2022/03/30 08:46:41;;;;;;;35.33;16.23;;;9.30;99.90;;;;;;5032147;28;20045;-76
2022/03/30 08:49:08;;;;;;;32.35;16.55;;;9.30;99.90;;;;;;5039564;28;20049;-76
2022/03/30 08:51:37;;;;;;;34.20;15.38;;;9.20;99.90;;;;;;5052310;28;20537;-78
2022/03/30 08:54:03;;;;;;;37.30;15.35;;;9.30;99.90;;;;;;5051576;28;20466;-77
2022/03/30 08:56:30;;;;;;;34.42;15.32;;;9.30;99.90;;;;;;5052191;28;20106;-75
2022/03/30 08:59:06;;;;;;;39.45;14.52;;;9.30;99.90;;;;;;5044286;28;20033;-77
2022/03/30 09:01:33;;;;;;;33.80;15.55;;;9.30;99.90;;;;;;5037474;28;20021;-78
2022/03/30 09:04:01;;;;;;;33.10;15.02;;;9.30;99.90;;;;;;5053267;28;20565;-76
2022/03/30 09:06:36;;;;;;;43.28;15.68;;;9.20;99.90;;;;;;5054099;28;20033;-77
2022/03/30 09:09:03;;;;;;;38.03;16.00;;;9.30;99.90;;;;;;5051365;28;20060;-77
2022/03/30 09:11:37;;;;;;;25.70;13.88;;;9.20;99.90;;;;;;5040927;28;20108;-77
2022/03/30 09:14:08;;;;;;;33.92;14.82;;;9.30;99.90;;;;;;5051508;28;20844;-77
2022/03/30 09:16:41;;;;;;;;;;;9.30;99.90;;;;;;5048905;28;20028;-77
2022/03/30 09:19:09;;;;;;;30.70;13.15;;;9.30;99.90;;;;;;5050576;28;20580;-74
2022/03/30 09:21:46;;;;;;;33.58;14.50;;;9.40;99.90;;;;;;5050376;28;20386;-75
2022/03/30 09:24:14;;;;;;;36.00;15.85;;;9.40;99.90;;;;;;5051081;28;20021;-76
2022/03/30 09:26:42;;;;;;;32.15;15.60;;;9.40;99.90;;;;;;5046600;28;20036;-77
2022/03/30 09:29:08;;;;;;;34.25;13.40;;;9.40;99.90;;;;;;5030731;28;20095;-75
2022/03/30 09:31:36;;;;;;;29.38;11.20;;;9.40;99.90;;;;;;5036069;28;20037;-75
2022/03/30 09:34:03;;;;;;;32.08;12.27;;;9.40;99.90;;;;;;5043212;28;20496;-75
2022/03/30 09:36:31;;;;;;;27.05;11.57;;;9.40;99.90;;;;;;5049384;28;20039;-76
2022/03/30 09:38:57;;;;;;;31.20;11.60;;;9.40;99.90;;;;;;5032656;28;20025;-78
2022/03/30 09:41:23;;;;;;;31.38;11.90;;;9.40;99.90;;;;;;5042566;28;20025;-76
2022/03/30 09:43:48;;;;;;;31.60;12.13;;;9.40;99.90;;;;;;5030968;28;20051;-73
2022/03/30 09:46:15;;;;;;;33.72;10.48;;;9.50;99.90;;;;;;5034912;28;20033;-75
2022/03/30 09:48:49;;;;;;;32.80;12.35;;;9.50;99.90;;;;;;5028426;28;20025;-76
2022/03/30 09:51:17;;;;;;;28.98;11.45;;;9.60;99.90;;;;;;4995017;28;20029;-76
2022/03/30 09:53:44;;;;;;;28.63;11.32;;;9.60;99.90;;;;;;5029386;28;20045;-77
2022/03/30 09:56:14;;;;;;;22.65;11.30;;;9.60;99.90;;;;;;5010051;28;20034;-76
2022/03/30 09:58:41;;;;;;;23.67;10.90;;;9.70;99.90;;;;;;5021550;28;20022;-77
2022/03/30 10:01:10;;;;;;;34.53;11.23;;;9.70;99.90;;;;;;5030290;28;20041;-76
2022/03/30 10:03:43;;;;;;;34.85;11.10;;;9.70;99.90;;;;;;5018205;28;20021;-77
2022/03/30 10:06:11;;;;;;;31.08;12.15;;;9.80;99.90;;;;;;5030499;28;20096;-77
2022/03/30 10:08:39;;;;;;;36.30;12.02;;;9.80;99.90;;;;;;5020118;28;20030;-76
2022/03/30 10:11:05;;;;;;;33.15;12.20;;;9.80;99.90;;;;;;5030883;28;20100;-76
2022/03/30 10:13:31;;;;;;;30.35;12.43;;;9.80;99.90;;;;;;5026064;28;20519;-75
2022/03/30 10:15:58;;;;;;;32.60;12.13;;;9.80;99.90;;;;;;5012638;28;20488;-76
2022/03/30 10:18:24;;;;;;;29.17;10.63;;;9.90;99.90;;;;;;4994639;28;20042;-76
2022/03/30 10:21:02;;;;;;;25.60;11.68;;;9.90;99.90;;;;;;5012461;28;20030;-75
2022/03/30 10:23:48;;;;;;;31.67;12.35;;;9.90;99.90;;;;;;5021465;28;20030;-75
2022/03/30 10:26:52;;;;;;;31.80;10.82;;;10.00;99.90;;;;;;5012111;28;20479;-76
2022/03/30 10:29:21;;;;;;;33.80;11.20;;;10.20;99.90;;;;;;5011966;28;20443;-75
2022/03/30 10:32:09;;;;;;;25.58;10.52;;;10.30;99.90;;;;;;5000492;28;20032;-75
2022/03/30 10:34:51;;;;;;;31.05;11.35;;;10.40;99.90;;;;;;5011433;28;20053;-76
2022/03/30 10:37:25;;;;;;;26.05;10.93;;;10.50;99.90;;;;;;5011501;28;20034;-76
2022/03/30 10:40:11;;;;;;;31.50;12.10;;;10.60;99.90;;;;;;5013458;28;20041;-77
2022/03/30 10:42:54;;;;;;;31.33;11.20;;;10.70;99.90;;;;;;5024879;28;20037;-76
2022/03/30 10:45:33;;;;;;;36.28;11.43;;;10.90;99.90;;;;;;5008916;28;20034;-77
2022/03/30 10:48:08;;;;;;;25.67;10.10;;;11.20;99.90;;;;;;5034294;28;20539;-78
2022/03/30 10:50:36;;;;;;;25.25;10.45;;;11.40;99.90;;;;;;5048499;28;20110;-78
2022/03/30 10:53:02;;;;;;;35.65;10.38;;;11.60;99.90;;;;;;5054425;28;20103;-79
2022/03/30 10:55:30;;;;;;;29.27;10.77;;;11.60;99.90;;;;;;5051639;28;20029;-79
2022/03/30 10:58:02;;;;;;;37.88;12.27;;;11.70;99.90;;;;;;5035482;28;20041;-76
2022/03/30 11:00:39;;;;;;;31.45;11.52;;;11.60;99.90;;;;;;5048789;28;20040;-78
2022/03/30 11:03:25;;;;;;;27.65;10.38;;;11.60;99.90;;;;;;5035696;28;20026;-77
2022/03/30 11:06:05;;;;;;;27.90;10.60;;;11.60;99.90;;;;;;5041739;28;20037;-75
2022/03/30 11:08:34;;;;;;;27.08;10.65;;;11.50;99.90;;;;;;5059944;28;20462;-76
2022/03/30 11:11:22;;;;;;;28.05;11.27;;;11.50;99.90;;;;;;5058016;28;20039;-76
2022/03/30 11:13:48;;;;;;;27.95;11.30;;;11.50;99.90;;;;;;5061976;28;20526;-76
2022/03/30 11:16:15;;;;;;;25.10;11.10;;;11.50;99.90;;;;;;5055640;28;20037;-76
2022/03/30 11:18:55;;;;;;;30.15;10.55;;;11.40;99.90;;;;;;5036877;28;20021;-76
2022/03/30 11:21:21;;;;;;;;;;;11.40;99.90;;;;;;5040564;28;20036;-76
2022/03/30 11:24:18;;;;;;;30.35;11.50;;;11.40;99.90;;;;;;5044447;28;19905;-78
2022/03/30 11:26:49;;;;;;;26.25;12.30;;;11.30;99.90;;;;;;5053739;28;20051;-77
2022/03/30 11:29:44;;;;;;;35.35;13.07;;;11.30;99.90;;;;;;5052899;28;20033;-77
2022/03/30 11:32:19;;;;;;;33.53;13.75;;;11.20;99.90;;;;;;5044739;28;20560;-78
2022/03/30 11:34:48;;;;;;;36.85;13.80;;;11.00;99.90;;;;;;5034879;28;20091;-77
2022/03/30 11:37:13;;;;;;;30.27;13.30;;;10.90;99.90;;;;;;5032606;28;20021;-77
2022/03/30 11:39:41;;;;;;;34.20;14.65;;;10.80;99.90;;;;;;5049994;28;20035;-77
2022/03/30 11:42:07;;;;;;;30.08;13.13;;;10.70;99.90;;;;;;5049821;28;20103;-77
2022/03/30 11:47:24;;;;;;;33.30;13.65;;;10.50;99.90;;;;;;5034868;28;20056;-78
2022/03/30 11:49:50;;;;;;;30.92;14.60;;;10.40;99.90;;;;;;5033648;28;20069;-76
2022/03/30 11:52:17;;;;;;;33.22;13.85;;;10.40;99.90;;;;;;5032694;28;20463;-77
2022/03/30 11:54:47;;;;;;;26.58;12.43;;;10.50;99.90;;;;;;5032434;28;20454;-77
2022/03/30 11:57:15;;;;;;;26.38;11.77;;;10.50;99.90;;;;;;5051675;28;20576;-77
2022/03/30 11:59:40;;;;;;;24.50;12.35;;;10.60;99.90;;;;;;5052044;28;20496;-77
2022/03/30 12:02:07;;;;;;;32.00;13.93;;;10.70;99.90;;;;;;5050407;28;20025;-77
2022/03/30 12:04:34;;;;;;;29.88;12.93;;;10.70;99.90;;;;;;5053086;28;20397;-77
2022/03/30 12:07:00;;;;;;;23.17;13.38;;;10.80;99.90;;;;;;5051925;28;20040;-76
2022/03/30 12:09:26;;;;;;;26.02;14.27;;;10.80;99.90;;;;;;5051417;28;20079;-77
2022/03/30 12:11:52;;;;;;;31.02;13.52;;;10.90;99.90;;;;;;5052569;28;20488;-75
2022/03/30 12:14:25;;;;;;;26.83;14.18;;;11.00;99.90;;;;;;5052502;28;20032;-76
2022/03/30 12:16:51;;;;;;;34.00;15.55;;;11.10;99.90;;;;;;5035004;28;20029;-77
2022/03/30 12:19:17;;;;;;;28.00;15.70;;;11.20;99.90;;;;;;5036859;28;20036;-77
2022/03/30 12:21:42;;;;;;;31.60;14.93;;;11.20;99.90;;;;;;5050792;28;20037;-76
2022/03/30 12:24:10;;;;;;;28.63;15.65;;;11.20;99.90;;;;;;5052065;28;20112;-76
2022/03/30 12:26:36;;;;;;;28.02;15.23;;;11.20;99.90;;;;;;5041240;28;20039;-77
2022/03/30 12:29:03;;;;;;;26.25;15.13;;;11.20;99.90;;;;;;5032703;28;20037;-77
2022/03/30 12:31:38;;;;;;;29.30;16.67;;;11.20;99.90;;;;;;5047175;28;20102;-78
2022/03/30 12:34:11;;;;;;;36.90;17.77;;;11.30;99.90;;;;;;5040958;28;20025;-77
2022/03/30 12:37:02;;;;;;;30.02;15.88;;;11.30;99.90;;;;;;5040635;28;20140;-77
2022/03/30 12:39:39;;;;;;;29.60;16.13;;;11.20;99.90;;;;;;5025471;28;20037;-77
2022/03/30 12:42:06;;;;;;;21.50;11.20;;;11.20;99.90;;;;;;5040438;28;20041;-77
2022/03/30 12:44:50;;;;;;;16.63;9.70;;;11.10;99.90;;;;;;5051273;28;20025;-77
2022/03/30 12:47:25;;;;;;;15.90;9.32;;;11.00;99.90;;;;;;5033634;28;20026;-76
2022/03/30 12:49:54;;;;;;;13.75;7.70;;;10.80;99.90;;;;;;5031669;28;20111;-77